Share

Cavalier, ND (58220)

Cavalier (K2C8) Elev 892 ft | 48.78 °N, 97.63 °W | Change Station
Active Advisory: Flood Warning Active Notice: Public Information Statement

Current weather conditions updated 13 minutes ago

Scattered Clouds
Scattered Clouds
46 °F
Feels Like 42 °F
N
10
Wind Variable Wind from WNW
Gusts 16 mph
Sunrise 6:31 AM
Sunset 8:28 PM
Moon Waning Gibbous

Tomorrow is forecast to be Much Warmer than today.

Pressure 29.95 in
Visibility 10.0 miles
Clouds Scattered Clouds 4000 ft
Windchill 42 °F
Dew Point 34 °F
Humidity 62%
Rainfall 0.00 in
Snow Depth Not available.
UV 0 out of 16
Pollen 9.40 out of 12
Air Quality Not available.
Flu Activity Sporadic
METAR K2C8 200155Z AUTO 29009G14KT 10SM SCT040 08/01 A2995 RMK AO2

More Conditions Fewer Conditions

Pressure 29.95 in
Visibility 10.0 miles
Clouds Scattered Clouds 4000 ft
Windchill 42 °F
Dew Point 34 °F
Humidity 62%
Rainfall 0.00 in
Snow Depth Not available.
UV 0 out of 16
Pollen 9.40 out of 12
Air Quality Not available.
Flu Activity Sporadic
METAR K2C8 200155Z AUTO 29009G14KT 10SM SCT040 08/01 A2995 RMK AO2

More Conditions Fewer Conditions

10-Day Weather Forecast

Almanac

Astronomy

Apr. 19, 2014 Rise Set
Actual Time 6:31 AM CDT 8:28 PM CDT
Civil Twilight 5:58 AM CDT 9:02 PM CDT
Nautical Twilight 5:16 AM CDT 9:44 PM CDT
Astronomical Twilight 4:30 AM CDT 10:30 PM CDT
Moon 12:25 AM CDT (4/19) 9:40 AM CDT (4/19)
Length of Visible Light 15h 03m
Length of Day
13h 56m
Tomorrow will be 3m 23s longer.
Waning Gibbous, 75% of the Moon is Illuminated
Today
Waning Gibbous
Apr 22
Last Quarter
Apr 29
New
May 6
First Quarter
May 14
Full

Today's Extremes

State Highs State Lows

Community

  • Cherry Blossoms
    Cherry Blossoms
  • White-Crowned Sparrow
    White-Crowned Sparrow
  • New Day
    New Day
  • Happy Easter!
    Happy Easter!
  • poppy bloom near Mazar-e-Sharif
    poppy bloom near Mazar-e-Sharif

WunderPhotos

Upload Photos

1,703,031 photos uploaded!

WunderBlogs® & News

By Dr. Jeff Masters
Director of Meteorology, Weather Underground
By Kari Strenfel
Meteorologist, Weather Underground
By Christopher C. Burt
Weather Historian, Weather Underground
April 19, 2014
April 19, 2014
April 19, 2014

Nearby

Snow Depth

Station Depth Elevation
No new snow has been reported.

Coastal Water Temperatures

Place Temperature
No Stations Reporting

Earthquake Activity

City Distance Mag. Time & Date
No recent earthquake activity has been reported nearby.
Minimum magnitude displayed is 2.5.

Nearby Weather Stations

There are no personal weather stations in this area.

What do you think?

We're not finished. Please let us know what you like, what you don't like, and what you are still missing.